createdAt,value
2022-12-01T00:01:37.294Z,928.2
2022-12-01T00:03:20.990Z,943.9
2022-12-01T00:05:04.731Z,969
2022-12-01T00:06:48.483Z,1012.8
2022-12-01T00:08:32.103Z,1032.9
2022-12-01T00:10:15.805Z,1031.7
2022-12-01T00:11:59.514Z,1016.1
2022-12-01T00:13:43.209Z,997.3
2022-12-01T00:15:26.922Z,994.9
2022-12-01T00:17:10.619Z,993.1
2022-12-01T00:18:54.317Z,989.9
2022-12-01T00:20:38.022Z,987.7
2022-12-01T00:22:21.718Z,986.8
2022-12-01T00:24:05.426Z,986.4
2022-12-01T00:25:49.133Z,986.6
2022-12-01T00:27:32.867Z,985.8
2022-12-01T00:29:16.547Z,983.8
2022-12-01T00:31:00.240Z,982
2022-12-01T00:32:43.945Z,981.8
2022-12-01T00:34:27.662Z,978.8
2022-12-01T00:36:11.338Z,976.4
2022-12-01T00:37:55.055Z,978
2022-12-01T00:39:38.747Z,974
2022-12-01T00:41:22.453Z,969.3
2022-12-01T00:43:06.155Z,967.3
2022-12-01T00:44:49.856Z,965.7
2022-12-01T00:46:33.561Z,965.9
2022-12-01T00:48:17.268Z,969.1
2022-12-01T00:50:01.045Z,967.8
2022-12-01T00:51:44.668Z,959.4
2022-12-01T00:53:28.381Z,959.8
2022-12-01T00:55:12.070Z,961.3
2022-12-01T00:56:55.777Z,965.5
2022-12-01T00:58:39.494Z,966.9
2022-12-01T01:00:23.176Z,969
2022-12-01T01:02:06.893Z,972.2
2022-12-01T01:03:50.705Z,968.1
2022-12-01T01:05:34.297Z,972.8
2022-12-01T01:07:18.095Z,966.4
2022-12-01T01:09:01.750Z,964.5
2022-12-01T01:10:45.465Z,958.5
2022-12-01T01:12:29.128Z,952.7
2022-12-01T01:15:56.504Z,953.1
2022-12-01T01:17:40.199Z,948.5
2022-12-01T01:19:23.911Z,940.1
2022-12-01T01:21:07.627Z,931.9
2022-12-01T01:22:51.305Z,935.9
2022-12-01T01:24:35.019Z,934.6
2022-12-01T01:26:18.721Z,933.2
2022-12-01T01:28:02.411Z,935.2
2022-12-01T01:29:46.125Z,935.6
2022-12-01T01:31:29.826Z,933.6
2022-12-01T01:33:13.537Z,933
2022-12-01T01:34:57.225Z,929.7
2022-12-01T01:36:40.978Z,928.1
2022-12-01T01:38:24.662Z,922
2022-12-01T01:40:08.340Z,920.9
2022-12-01T01:41:52.028Z,917.7
2022-12-01T01:43:35.740Z,914.9
2022-12-01T01:45:19.485Z,906.4
2022-12-01T01:47:03.157Z,902.8
2022-12-01T01:48:46.842Z,901.8
2022-12-01T01:50:30.541Z,900.7
2022-12-01T01:52:14.245Z,902.7
2022-12-01T01:53:57.966Z,901.9
2022-12-01T01:55:41.640Z,899.3
2022-12-01T01:57:25.346Z,887.4
2022-12-01T01:59:09.057Z,886.1
2022-12-01T02:00:52.793Z,884.7
2022-12-01T02:02:36.450Z,883.3
2022-12-01T02:04:20.287Z,882.2
2022-12-01T02:06:03.855Z,885.5
2022-12-01T02:07:47.572Z,885.6
2022-12-01T02:09:31.266Z,882.9
2022-12-01T02:11:14.998Z,879.4
2022-12-01T02:12:58.679Z,880.6
2022-12-01T02:14:42.373Z,881.3
2022-12-01T02:16:26.079Z,880.9
2022-12-01T02:18:09.787Z,878.1
2022-12-01T02:19:53.482Z,876.5
2022-12-01T02:21:37.185Z,873.1
2022-12-01T02:23:20.893Z,869.8
2022-12-01T02:25:04.587Z,871.2
2022-12-01T02:26:48.315Z,869.3
2022-12-01T02:28:32.001Z,867.5
2022-12-01T02:30:15.722Z,868.5
2022-12-01T02:31:59.405Z,867.9
2022-12-01T02:33:43.103Z,865.9
2022-12-01T02:35:26.813Z,861.3
2022-12-01T02:37:10.533Z,858.7
2022-12-01T02:38:54.215Z,855.7
2022-12-01T02:40:37.918Z,858
2022-12-01T02:42:21.621Z,853.6
2022-12-01T02:44:05.321Z,846.9
2022-12-01T02:45:49.030Z,843.9
2022-12-01T02:47:32.748Z,846.4
2022-12-01T02:49:16.433Z,844.2
2022-12-01T02:51:00.136Z,844.4
2022-12-01T02:52:43.837Z,842
2022-12-01T02:54:27.542Z,838.8
2022-12-01T02:56:11.335Z,840.8
2022-12-01T02:57:54.942Z,839.4
2022-12-01T02:59:38.642Z,841.7
2022-12-01T03:01:22.358Z,839.3
2022-12-01T03:03:06.062Z,834.8
2022-12-01T03:04:49.811Z,833.8
2022-12-01T03:06:33.474Z,829.6
2022-12-01T03:08:17.162Z,829.8
2022-12-01T03:10:00.880Z,828.7
2022-12-01T03:11:44.572Z,828.4
2022-12-01T03:13:28.273Z,825.6
2022-12-01T03:15:11.974Z,825.5
2022-12-01T03:16:55.671Z,822.1
2022-12-01T03:18:39.375Z,822.1
2022-12-01T03:20:23.080Z,821.6
2022-12-01T03:22:06.779Z,819.9
2022-12-01T03:23:50.491Z,834.2
2022-12-01T03:25:34.187Z,930
2022-12-01T03:27:17.930Z,939.1
2022-12-01T03:29:01.598Z,935.8
2022-12-01T03:30:45.369Z,922.9
2022-12-01T03:32:28.998Z,890.9
2022-12-01T03:34:12.703Z,884.1
2022-12-01T03:35:56.402Z,880.8
2022-12-01T03:37:40.101Z,877.7
2022-12-01T03:39:23.866Z,875.6
2022-12-01T03:41:07.547Z,873.5
2022-12-01T03:42:51.233Z,871.4
2022-12-01T03:44:34.911Z,871.5
2022-12-01T03:46:18.618Z,872.3
2022-12-01T03:48:02.342Z,867
2022-12-01T03:49:46.021Z,864
2022-12-01T03:51:29.787Z,863.2
2022-12-01T03:53:13.435Z,862.1
2022-12-01T03:54:57.127Z,857.8
2022-12-01T03:56:40.848Z,853.4
2022-12-01T03:58:24.628Z,853.2
2022-12-01T04:00:08.250Z,851.7
2022-12-01T04:01:51.967Z,845.4
2022-12-01T04:03:35.656Z,841.8
2022-12-01T04:05:19.365Z,838.2
2022-12-01T04:07:03.056Z,834.7
2022-12-01T04:08:46.741Z,834.5
2022-12-01T04:10:30.454Z,838.5
2022-12-01T04:12:14.158Z,841.3
2022-12-01T04:13:57.863Z,839.9
2022-12-01T04:15:41.561Z,841
2022-12-01T04:17:25.263Z,839.8
2022-12-01T04:19:08.970Z,835.2
2022-12-01T04:20:52.675Z,826
2022-12-01T04:22:36.370Z,821.3
2022-12-01T04:24:20.081Z,822
2022-12-01T04:26:03.781Z,823.3
2022-12-01T04:27:47.478Z,822.1
2022-12-01T04:29:31.182Z,821.1
2022-12-01T04:31:14.891Z,817.6
2022-12-01T04:32:58.690Z,818.5
2022-12-01T04:34:42.290Z,818.8
2022-12-01T04:36:25.994Z,817.5
2022-12-01T04:38:09.697Z,818.6
2022-12-01T04:39:53.403Z,814.8
2022-12-01T04:41:37.105Z,817.5
2022-12-01T04:43:20.814Z,818.7
2022-12-01T04:45:04.516Z,815.4
2022-12-01T04:46:48.215Z,812.4
2022-12-01T04:48:31.929Z,810.1
2022-12-01T04:50:15.624Z,809.1
2022-12-01T04:51:59.340Z,809.8
2022-12-01T04:53:43.024Z,808
2022-12-01T04:55:26.721Z,805.4
2022-12-01T04:57:10.423Z,805.9
2022-12-01T04:58:54.130Z,805.6
2022-12-01T05:00:37.823Z,806.1
2022-12-01T05:02:21.537Z,806.8
2022-12-01T05:04:05.240Z,807.3
2022-12-01T05:05:49.030Z,803.9
2022-12-01T05:07:32.636Z,802.4
2022-12-01T05:09:16.348Z,806.4
2022-12-01T05:11:00.071Z,809.8
2022-12-01T05:12:43.798Z,810
2022-12-01T05:14:27.452Z,807.6
2022-12-01T05:16:11.159Z,805.7
2022-12-01T05:17:54.862Z,803.2
2022-12-01T05:19:38.555Z,801.3
2022-12-01T05:21:22.351Z,799.7
2022-12-01T05:23:05.976Z,800.9
2022-12-01T05:24:49.775Z,796.5
2022-12-01T05:26:33.380Z,796.9
2022-12-01T05:28:17.103Z,791.7
2022-12-01T05:30:00.777Z,790.6
2022-12-01T05:31:44.490Z,793.4
2022-12-01T05:33:28.210Z,790.7
2022-12-01T05:35:11.969Z,797.4
2022-12-01T05:36:55.595Z,793.1
2022-12-01T05:38:39.334Z,792.7
2022-12-01T05:40:23.101Z,792.6
2022-12-01T05:42:06.752Z,789.7
2022-12-01T05:43:50.390Z,789.8
2022-12-01T05:45:34.107Z,787.4
2022-12-01T05:47:17.801Z,784.1
2022-12-01T05:49:01.534Z,785.5
2022-12-01T05:50:45.212Z,788.4
2022-12-01T05:52:28.908Z,786
2022-12-01T05:54:12.614Z,786.7
2022-12-01T05:55:56.321Z,787.8
2022-12-01T05:57:40.107Z,784.9
2022-12-01T05:59:23.751Z,782.3
2022-12-01T06:01:07.411Z,779
2022-12-01T06:02:51.136Z,777.7
2022-12-01T06:04:34.835Z,778
2022-12-01T06:06:18.625Z,773.1
2022-12-01T06:08:02.234Z,766.6
2022-12-01T06:09:45.984Z,764.8
2022-12-01T06:11:29.667Z,765.3
2022-12-01T06:13:13.392Z,766.7
2022-12-01T06:14:57.066Z,766.7
2022-12-01T06:16:40.758Z,767.4
2022-12-01T06:18:24.454Z,770.6
2022-12-01T06:20:08.162Z,771.5
2022-12-01T06:21:51.859Z,767.9
2022-12-01T06:23:35.613Z,768.8
2022-12-01T06:25:19.267Z,767.6
2022-12-01T06:27:02.969Z,765.7
2022-12-01T06:28:46.699Z,764.7
2022-12-01T06:30:30.374Z,766.1
2022-12-01T06:32:14.082Z,766.7
2022-12-01T06:33:57.779Z,767.8
2022-12-01T06:35:41.484Z,772.2
2022-12-01T06:37:25.194Z,774.8
2022-12-01T06:39:08.887Z,774.9
2022-12-01T06:40:52.591Z,771.7
2022-12-01T06:42:36.385Z,773.2
2022-12-01T06:44:19.990Z,774.7
2022-12-01T06:46:03.697Z,774.1
2022-12-01T06:47:47.471Z,775.4
2022-12-01T06:49:31.134Z,771.6
2022-12-01T06:51:14.811Z,768.7
2022-12-01T06:52:58.505Z,765.3
2022-12-01T06:54:42.217Z,763.7
2022-12-01T06:56:25.912Z,765.4
2022-12-01T06:58:09.612Z,761.1
2022-12-01T06:59:53.345Z,759.4
2022-12-01T07:01:37.091Z,757.9
2022-12-01T07:03:20.714Z,756.8
2022-12-01T07:05:04.461Z,756.4
2022-12-01T07:06:48.156Z,754.9
2022-12-01T07:08:31.823Z,756.3
2022-12-01T07:10:15.530Z,754.2
2022-12-01T07:11:59.224Z,751.7
2022-12-01T07:13:43.035Z,749.2
2022-12-01T07:15:26.681Z,746.2
2022-12-01T07:17:10.418Z,745.3
2022-12-01T07:18:54.146Z,747.1
2022-12-01T07:20:37.760Z,750.2
2022-12-01T07:22:21.576Z,749
2022-12-01T07:24:05.139Z,750
2022-12-01T07:25:48.934Z,751.6
2022-12-01T07:27:32.569Z,753.5
2022-12-01T07:29:16.349Z,754.4
2022-12-01T07:30:59.946Z,753.2
2022-12-01T07:32:43.651Z,752.6
2022-12-01T07:34:27.454Z,754.6
2022-12-01T07:36:11.115Z,760.9
2022-12-01T07:37:54.826Z,775.3
2022-12-01T07:39:38.475Z,786.5
2022-12-01T07:41:22.286Z,798.9
2022-12-01T07:43:05.864Z,814.4
2022-12-01T07:44:49.567Z,831.6
2022-12-01T07:46:33.330Z,842.5
2022-12-01T07:48:16.991Z,841.8
2022-12-01T07:50:00.767Z,844.7
2022-12-01T07:51:44.576Z,843.7
2022-12-01T07:53:28.175Z,851.5
2022-12-01T07:55:11.830Z,888.8
2022-12-01T07:56:55.480Z,936.6
2022-12-01T07:58:39.196Z,911.3
2022-12-01T08:00:22.915Z,855.6
2022-12-01T08:02:06.705Z,838.2
2022-12-01T08:03:50.405Z,833.8
2022-12-01T08:05:34.136Z,836.5
2022-12-01T08:07:17.724Z,836.9
2022-12-01T08:09:01.416Z,840
2022-12-01T08:10:45.171Z,845.1
2022-12-01T08:12:28.810Z,849.4
2022-12-01T08:14:12.655Z,857.7
2022-12-01T08:15:56.207Z,861.2
2022-12-01T08:17:39.945Z,866.2
2022-12-01T08:19:23.636Z,868.4
2022-12-01T08:21:07.381Z,870
2022-12-01T08:22:51.151Z,871.5
2022-12-01T08:24:34.821Z,874.2
2022-12-01T08:26:18.441Z,876.3
2022-12-01T08:28:02.149Z,878.5
2022-12-01T08:29:45.937Z,878.8
2022-12-01T08:31:29.612Z,880.8
2022-12-01T08:33:13.235Z,880.2
2022-12-01T08:34:56.997Z,875.6
2022-12-01T08:36:40.648Z,880
2022-12-01T08:38:24.344Z,882.4
2022-12-01T08:40:08.103Z,885
2022-12-01T08:41:51.801Z,894
2022-12-01T08:43:35.575Z,894.1
2022-12-01T08:45:19.158Z,895.7
2022-12-01T08:47:02.924Z,898.2
2022-12-01T08:48:46.689Z,901.9
2022-12-01T08:50:30.292Z,902.6
2022-12-01T08:52:13.966Z,904.6
2022-12-01T08:53:57.699Z,902.1
2022-12-01T08:55:41.378Z,903.4
2022-12-01T08:57:25.080Z,903.7
2022-12-01T08:59:08.870Z,906.2
2022-12-01T09:00:52.623Z,901.8
2022-12-01T09:02:36.256Z,899.1
2022-12-01T09:04:20.003Z,902.3
2022-12-01T09:06:03.608Z,906.6
2022-12-01T09:07:47.301Z,904.4
2022-12-01T09:09:31.025Z,904
2022-12-01T09:11:14.703Z,907
2022-12-01T09:12:58.451Z,907.1
2022-12-01T09:14:42.112Z,907.9
2022-12-01T09:16:25.808Z,902
2022-12-01T09:18:09.516Z,900.3
2022-12-01T09:19:53.218Z,901.8
2022-12-01T09:21:36.986Z,899.5
2022-12-01T09:23:20.639Z,901.2
2022-12-01T09:25:04.380Z,905
2022-12-01T09:26:48.110Z,904.1
2022-12-01T09:28:31.771Z,905.9
2022-12-01T09:30:15.428Z,907.8
2022-12-01T09:31:59.132Z,913
2022-12-01T09:33:42.838Z,917.6
2022-12-01T09:35:26.535Z,920.5
2022-12-01T09:37:10.276Z,925
2022-12-01T09:38:53.936Z,927.5
2022-12-01T09:40:37.660Z,926.7
2022-12-01T09:42:21.352Z,927.7
2022-12-01T09:44:05.047Z,928.9
2022-12-01T09:45:48.750Z,932
2022-12-01T09:47:32.468Z,934.1
2022-12-01T09:49:16.297Z,938
2022-12-01T09:50:59.861Z,942.7
2022-12-01T09:52:43.605Z,945.4
2022-12-01T09:54:27.263Z,952.6
2022-12-01T09:56:10.980Z,1158
2022-12-01T09:57:54.667Z,1105.5
2022-12-01T09:59:38.375Z,1109.7
2022-12-01T10:01:22.079Z,1309.5
2022-12-01T10:03:05.778Z,1190.6
2022-12-01T10:04:49.690Z,1144.8
2022-12-01T10:06:33.187Z,1118.9
2022-12-01T10:08:16.913Z,1084.6
2022-12-01T10:10:00.594Z,1081.3
2022-12-01T10:11:44.292Z,1080.1
2022-12-01T10:13:28.013Z,1078.6
2022-12-01T10:15:11.741Z,1077.3
2022-12-01T10:16:55.402Z,1075.6
2022-12-01T10:18:39.118Z,1078.8
2022-12-01T10:20:22.897Z,1078.5
2022-12-01T10:22:06.576Z,1076.9
2022-12-01T10:23:50.305Z,1074.6
2022-12-01T10:25:33.961Z,1076.2
2022-12-01T10:27:17.613Z,1073.7
2022-12-01T10:29:01.367Z,1076.3
2022-12-01T10:30:45.040Z,1073.3
2022-12-01T10:32:28.773Z,1067.2
2022-12-01T10:34:12.431Z,1063.2
2022-12-01T10:35:56.228Z,1062.8
2022-12-01T10:37:39.997Z,1064.4
2022-12-01T10:39:23.688Z,1068
2022-12-01T10:41:07.391Z,1069.9
2022-12-01T10:42:51.140Z,1073.4
2022-12-01T10:44:34.763Z,1077.3
2022-12-01T10:46:18.515Z,1079.5
2022-12-01T10:48:02.242Z,1075.9
2022-12-01T10:49:45.758Z,1074.6
2022-12-01T10:51:29.646Z,1071.5
2022-12-01T10:53:13.209Z,1071.3
2022-12-01T10:54:56.920Z,1077.7
2022-12-01T10:56:40.686Z,1089.5
2022-12-01T10:58:24.367Z,1089.8
2022-12-01T11:00:08.082Z,1089.7
2022-12-01T11:01:51.671Z,1084
2022-12-01T11:03:35.537Z,1082.9
2022-12-01T11:05:19.215Z,1239.7
2022-12-01T11:07:02.883Z,1323.3
2022-12-01T11:08:46.631Z,1361.1
2022-12-01T11:10:30.254Z,1373.8
2022-12-01T11:12:14.050Z,1378.9
2022-12-01T11:13:57.643Z,1374.3
2022-12-01T11:15:41.330Z,1371
2022-12-01T11:19:08.865Z,1359
2022-12-01T11:20:52.546Z,1366.6
2022-12-01T11:22:36.109Z,1367.5
2022-12-01T11:24:19.874Z,1380.9
2022-12-01T11:26:03.697Z,1416.9
2022-12-01T11:27:47.384Z,1424.4
2022-12-01T11:29:31.057Z,1428
2022-12-01T11:31:14.743Z,1432.2
2022-12-01T11:32:58.615Z,1438.3
2022-12-01T11:34:42.167Z,1443.4
2022-12-01T11:36:25.911Z,1455.8
2022-12-01T11:38:09.603Z,1460.1
2022-12-01T11:39:53.292Z,1463.9
2022-12-01T11:41:37.028Z,1458.5
2022-12-01T11:43:20.706Z,1457.2
2022-12-01T11:45:04.444Z,1461
2022-12-01T11:46:48.111Z,1472.6
2022-12-01T11:48:31.650Z,1475.3
2022-12-01T11:50:15.529Z,1480.6
2022-12-01T11:51:59.219Z,1485.3
2022-12-01T11:53:42.749Z,1481.2
2022-12-01T11:55:26.633Z,1479.4
2022-12-01T11:57:10.239Z,1482.6
2022-12-01T11:58:54.022Z,1460
2022-12-01T12:00:37.560Z,1466.3
2022-12-01T12:02:21.452Z,1451.8
2022-12-01T12:04:05.177Z,1421.8
2022-12-01T12:05:48.886Z,1417.7
2022-12-01T12:07:32.584Z,1422.5
2022-12-01T12:09:16.322Z,1418.1
2022-12-01T12:11:00.048Z,1411.6
2022-12-01T12:12:43.690Z,1410.3
2022-12-01T12:14:27.349Z,1407.5
2022-12-01T12:16:10.993Z,1402.7
2022-12-01T12:17:54.851Z,1400.5
2022-12-01T12:19:38.490Z,1404.1
2022-12-01T12:21:21.992Z,1408.9
2022-12-01T12:23:05.771Z,1409.6
2022-12-01T12:24:49.569Z,1413.2
2022-12-01T12:26:33.189Z,1413.4
2022-12-01T12:28:16.954Z,1412.2
2022-12-01T12:30:00.617Z,1410.7
2022-12-01T12:31:44.357Z,1408.9
2022-12-01T12:33:28.054Z,1402.9
2022-12-01T12:35:11.612Z,1399
2022-12-01T12:36:55.498Z,1398.9
2022-12-01T12:38:39.080Z,1392.1
2022-12-01T12:40:22.874Z,1388.5
2022-12-01T12:42:06.589Z,1386.9
2022-12-01T12:43:50.299Z,1384.7
2022-12-01T12:45:33.823Z,1383.2
2022-12-01T12:47:17.691Z,1381.9
2022-12-01T12:49:01.391Z,1379.3
2022-12-01T12:50:45.074Z,1366.8
2022-12-01T12:52:28.679Z,1347.4
2022-12-01T12:54:12.512Z,1342.5
2022-12-01T12:55:56.087Z,1345.9
2022-12-01T12:57:39.916Z,1349.8
2022-12-01T12:59:23.495Z,1340.8
2022-12-01T13:01:07.332Z,1325.8
2022-12-01T13:02:50.991Z,1311.5
2022-12-01T13:04:34.638Z,1301.8
2022-12-01T13:06:18.321Z,1295.9
2022-12-01T13:08:02.007Z,1291.4
2022-12-01T13:09:45.686Z,1284.5
2022-12-01T13:11:29.522Z,1282.8
2022-12-01T13:13:13.127Z,1278.7
2022-12-01T13:14:56.917Z,1281.1
2022-12-01T13:16:40.526Z,1281.7
2022-12-01T13:18:24.268Z,1278.3
2022-12-01T13:20:07.983Z,1276
2022-12-01T13:21:51.582Z,1269.8
2022-12-01T13:23:35.282Z,1295.1
2022-12-01T13:25:18.988Z,1296.6
2022-12-01T13:27:02.736Z,1301.2
2022-12-01T13:28:46.393Z,1299.2
2022-12-01T13:30:30.185Z,1296.8
2022-12-01T13:32:13.953Z,1287.5
2022-12-01T13:33:57.605Z,1275.3
2022-12-01T13:35:41.281Z,1266.2
2022-12-01T13:37:24.905Z,1262.3
2022-12-01T13:39:08.644Z,1260.7
2022-12-01T13:40:52.478Z,1259.5
2022-12-01T13:42:36.069Z,1256.5
2022-12-01T13:44:19.835Z,1256
2022-12-01T13:46:03.646Z,1252.7
2022-12-01T13:47:47.299Z,1254.8
2022-12-01T13:49:30.828Z,1253.4
2022-12-01T13:51:14.655Z,1255.3
2022-12-01T13:52:58.457Z,1257.3
2022-12-01T13:54:42.085Z,1259.2
2022-12-01T13:56:25.808Z,1274
2022-12-01T13:58:09.427Z,1301.1
2022-12-01T13:59:53.205Z,1274.2
2022-12-01T14:01:36.926Z,1253.7
2022-12-01T14:03:20.533Z,1255.7
2022-12-01T14:05:04.215Z,1256.8
2022-12-01T14:06:48.061Z,1244.4
2022-12-01T14:08:31.573Z,1240
2022-12-01T14:10:15.252Z,1241.1
2022-12-01T14:11:58.995Z,1241.6
2022-12-01T14:13:42.764Z,1240.4
2022-12-01T14:15:26.352Z,1239.9
2022-12-01T14:17:10.069Z,1241
2022-12-01T14:18:53.768Z,1241.6
2022-12-01T14:20:37.458Z,1238.2
2022-12-01T14:22:21.158Z,1233.9
2022-12-01T14:24:04.873Z,1230.4
2022-12-01T14:25:48.571Z,1230.4
2022-12-01T14:27:32.278Z,1226.9
2022-12-01T14:29:16.009Z,1223.7
2022-12-01T14:30:59.679Z,1221.7
2022-12-01T14:32:43.389Z,1220.4
2022-12-01T14:34:27.078Z,1222.2
2022-12-01T14:36:10.789Z,1218.9
2022-12-01T14:37:54.615Z,1224.7
2022-12-01T14:39:38.184Z,1251.3
2022-12-01T14:41:21.890Z,1236.5
2022-12-01T14:43:05.597Z,1236.3
2022-12-01T14:44:49.305Z,1234.6
2022-12-01T14:46:33.005Z,1215.5
2022-12-01T14:48:16.722Z,757.8
2022-12-01T14:50:00.427Z,861.5
2022-12-01T14:53:27.808Z,1231.4
2022-12-01T14:55:11.514Z,1185.2
2022-12-01T14:56:55.241Z,1080.9
2022-12-01T14:58:38.914Z,1085.8
2022-12-01T15:00:22.616Z,1079.9
2022-12-01T15:02:06.326Z,1072.8
2022-12-01T15:03:50.026Z,1070.3
2022-12-01T15:05:33.725Z,1072.2
2022-12-01T15:07:17.435Z,1073.2
2022-12-01T15:09:01.141Z,1074.5
2022-12-01T15:10:44.837Z,1079.2
2022-12-01T15:12:28.546Z,1084
2022-12-01T15:14:12.262Z,1078.7
2022-12-01T15:15:55.956Z,1082.8
2022-12-01T15:17:39.651Z,1085.7
2022-12-01T15:21:07.061Z,1085.3
2022-12-01T15:22:50.766Z,1088.6
2022-12-01T15:24:34.464Z,1081.3
2022-12-01T15:26:18.172Z,1083.3
2022-12-01T15:28:01.870Z,1103.5
2022-12-01T15:29:45.564Z,1135.1
2022-12-01T15:31:29.271Z,1122.4
2022-12-01T15:33:13.001Z,1116.6
2022-12-01T15:34:56.699Z,1112.8
2022-12-01T15:36:40.385Z,1117.5
2022-12-01T15:38:24.088Z,1119.7
2022-12-01T15:40:07.790Z,1117.9
2022-12-01T15:41:51.491Z,1122
2022-12-01T15:43:35.189Z,1379.7
2022-12-01T15:45:18.895Z,1422.9
2022-12-01T15:47:02.591Z,1438.9
2022-12-01T15:48:46.295Z,1432.7
2022-12-01T15:50:30.004Z,1386.8
2022-12-01T15:52:13.697Z,1383.3
2022-12-01T15:53:57.404Z,1388.8
2022-12-01T15:55:41.110Z,1384.8
2022-12-01T15:57:24.853Z,1377.1
2022-12-01T15:59:08.531Z,1367.9
2022-12-01T16:00:52.209Z,1353
2022-12-01T16:02:35.949Z,1321.4
2022-12-01T16:04:19.626Z,1309.2
2022-12-01T16:06:03.318Z,1305
2022-12-01T16:07:47.028Z,1309.5
2022-12-01T16:09:30.736Z,1315.8
2022-12-01T16:11:14.433Z,1320.1
2022-12-01T16:12:58.128Z,1323.1
2022-12-01T16:14:41.877Z,1325.9
2022-12-01T16:16:25.544Z,1326.5
2022-12-01T16:18:09.245Z,1324.6
2022-12-01T16:19:52.947Z,1319.3
2022-12-01T16:21:36.646Z,1317.4
2022-12-01T16:23:20.353Z,1321
2022-12-01T16:25:04.054Z,1317.1
2022-12-01T16:26:47.752Z,1313.8
2022-12-01T16:28:31.453Z,1310.8
2022-12-01T16:30:15.151Z,1305
2022-12-01T16:31:58.861Z,1301.8
2022-12-01T16:33:42.560Z,1297.8
2022-12-01T16:35:26.257Z,1293.1
2022-12-01T16:37:09.983Z,1296.1
2022-12-01T16:38:53.663Z,1313.3
2022-12-01T16:40:37.378Z,1314.5
2022-12-01T16:42:21.080Z,1317.6
2022-12-01T16:44:04.789Z,1314.9
2022-12-01T16:45:48.511Z,1310.2
2022-12-01T16:47:32.183Z,1306.7
2022-12-01T16:49:15.877Z,1304.3
2022-12-01T16:50:59.587Z,1297.9
2022-12-01T16:52:43.320Z,1293.1
2022-12-01T16:54:26.988Z,1290.7
2022-12-01T16:56:10.708Z,1286.2
2022-12-01T16:57:54.393Z,1285.1
2022-12-01T16:59:38.151Z,1281.7
2022-12-01T17:01:21.798Z,1280.6
2022-12-01T17:03:05.571Z,1277.9
2022-12-01T17:04:49.240Z,1283.7
2022-12-01T17:06:32.910Z,1286.4
2022-12-01T17:08:16.610Z,1288.5
2022-12-01T17:10:00.301Z,1285.4
2022-12-01T17:11:44.012Z,1274.3
2022-12-01T17:13:27.713Z,1297.6
2022-12-01T17:15:11.411Z,1312.8
2022-12-01T17:16:55.114Z,1308.4
2022-12-01T17:18:38.823Z,1279.3
2022-12-01T17:20:22.589Z,1262.5
2022-12-01T17:22:06.241Z,1259.6
2022-12-01T17:23:49.928Z,1256.6
2022-12-01T17:25:33.631Z,1257.5
2022-12-01T17:27:17.346Z,1258.6
2022-12-01T17:29:01.042Z,1256.7
2022-12-01T17:30:44.740Z,1253.8
2022-12-01T17:32:28.472Z,1250.3
2022-12-01T17:34:12.147Z,1251.7
2022-12-01T17:35:55.844Z,1253.7
2022-12-01T17:37:39.555Z,1252.2
2022-12-01T17:39:23.252Z,1250.6
2022-12-01T17:41:06.948Z,1246.8
2022-12-01T17:42:50.657Z,1246.2
2022-12-01T17:44:34.395Z,1246.8
2022-12-01T17:46:18.065Z,1245.9
2022-12-01T17:48:01.767Z,1245.6
2022-12-01T17:49:45.476Z,1241.9
2022-12-01T17:51:29.174Z,1239.6
2022-12-01T17:53:12.878Z,1238.3
2022-12-01T17:54:56.573Z,1234.6
2022-12-01T17:56:40.290Z,1230
2022-12-01T17:58:23.995Z,1225.6
2022-12-01T18:00:07.683Z,1224.9
2022-12-01T18:01:51.394Z,1223
2022-12-01T18:03:35.092Z,1221.5
2022-12-01T18:05:18.818Z,1223.3
2022-12-01T18:07:02.490Z,1223.3
2022-12-01T18:08:46.199Z,1221.9
2022-12-01T18:10:29.909Z,1216.1
2022-12-01T18:12:13.615Z,1212
2022-12-01T18:13:57.320Z,1213.6
2022-12-01T18:15:41.016Z,1205.1
2022-12-01T18:17:24.723Z,1205.9
2022-12-01T18:19:08.419Z,1295.9
2022-12-01T18:20:52.134Z,1286.5
2022-12-01T18:22:35.829Z,1287.2
2022-12-01T18:24:19.562Z,1304.3
2022-12-01T18:26:03.231Z,1311.8
2022-12-01T18:27:46.937Z,1317.1
2022-12-01T18:29:30.639Z,1318.1
2022-12-01T18:31:14.341Z,1311.8
2022-12-01T18:32:58.049Z,1310.1
2022-12-01T18:34:41.754Z,1311.3
2022-12-01T18:36:25.449Z,1309
2022-12-01T18:38:09.158Z,1304.1
2022-12-01T18:39:52.851Z,1302.8
2022-12-01T18:41:36.555Z,1300.7
2022-12-01T18:43:20.299Z,1297.4
2022-12-01T18:45:03.969Z,1293.2
2022-12-01T18:46:47.655Z,1292.2
2022-12-01T18:48:31.364Z,1294.7
2022-12-01T18:50:15.078Z,1289.4
2022-12-01T18:51:58.763Z,1289.9
2022-12-01T18:53:42.474Z,1287.5
2022-12-01T18:55:26.208Z,1293.8
2022-12-01T18:57:09.898Z,1293.4
2022-12-01T18:58:53.591Z,1291.4
2022-12-01T19:00:37.277Z,1299.9
2022-12-01T19:02:21.024Z,1318.6
2022-12-01T19:04:04.697Z,1325.2
2022-12-01T19:05:48.402Z,1333.1
2022-12-01T19:07:32.148Z,1362
2022-12-01T19:09:15.796Z,1421.5
2022-12-01T19:10:59.492Z,1423.9
2022-12-01T19:12:43.294Z,1419.4
2022-12-01T19:14:26.904Z,1408.4
2022-12-01T19:16:10.605Z,1389.5
2022-12-01T19:17:54.307Z,1366.7
2022-12-01T19:19:38.046Z,1370.3
2022-12-01T19:21:21.816Z,1377.6
2022-12-01T19:23:05.415Z,1382.6
2022-12-01T19:24:49.164Z,1381.3
2022-12-01T19:26:32.854Z,1378.8
2022-12-01T19:28:16.524Z,1380.6
2022-12-01T19:30:00.228Z,1380.2
2022-12-01T19:31:43.947Z,1379.7
2022-12-01T19:33:27.691Z,1379.9
2022-12-01T19:35:11.343Z,1377.7
2022-12-01T19:36:55.050Z,1380.9
2022-12-01T19:38:38.739Z,1387
2022-12-01T19:40:22.469Z,1392.5
2022-12-01T19:42:06.153Z,1389.1
2022-12-01T19:43:49.880Z,1389.5
2022-12-01T19:45:33.554Z,1390.1
2022-12-01T19:47:17.300Z,1390.5
2022-12-01T19:49:00.955Z,1391.6
2022-12-01T19:50:44.665Z,1389.9
2022-12-01T19:52:28.423Z,1387.7
2022-12-01T19:54:12.103Z,1382.5
2022-12-01T19:55:55.763Z,1371.4
2022-12-01T19:57:39.475Z,1367.4
2022-12-01T19:59:23.213Z,1360
2022-12-01T20:01:06.871Z,1338.5
2022-12-01T20:02:50.658Z,1303.4
2022-12-01T20:04:34.317Z,1296.6
2022-12-01T20:06:17.980Z,1299.2
2022-12-01T20:08:01.859Z,1301
2022-12-01T20:09:45.399Z,1301.6
2022-12-01T20:11:29.120Z,1303.8
2022-12-01T20:13:12.834Z,1300
2022-12-01T20:14:56.608Z,1298.7
2022-12-01T20:16:40.209Z,1294
2022-12-01T20:18:23.905Z,1294.2
2022-12-01T20:20:07.609Z,1282.7
2022-12-01T20:21:51.423Z,1274.8
2022-12-01T20:23:35.007Z,1273.2
2022-12-01T20:25:18.714Z,1267.5
2022-12-01T20:27:02.420Z,1261.9
2022-12-01T20:30:29.824Z,1261.2
2022-12-01T20:32:13.524Z,1260.1
2022-12-01T20:33:57.240Z,1259
2022-12-01T20:35:41.009Z,1256.9
2022-12-01T20:37:24.643Z,1253.7
2022-12-01T20:39:08.334Z,1254.5
2022-12-01T20:40:52.047Z,1252.6
2022-12-01T20:42:35.799Z,1246.3
2022-12-01T20:44:19.445Z,1245.3
2022-12-01T20:46:03.165Z,1242.3
2022-12-01T20:47:46.847Z,1243.3
2022-12-01T20:49:30.550Z,1240.5
2022-12-01T20:51:14.321Z,1237.6
2022-12-01T20:52:57.953Z,1236.2
2022-12-01T20:54:41.659Z,1236.2
2022-12-01T20:56:25.361Z,1231
2022-12-01T20:58:09.110Z,1228.8
2022-12-01T20:59:52.774Z,1235.2
2022-12-01T21:01:36.468Z,1234.7
2022-12-01T21:03:20.229Z,1230.6
2022-12-01T21:05:03.971Z,1226
2022-12-01T21:06:47.578Z,1224
2022-12-01T21:08:31.323Z,1223.7
2022-12-01T21:10:14.984Z,1215
2022-12-01T21:11:58.685Z,1214.2
2022-12-01T21:13:42.459Z,1219
2022-12-01T21:15:26.120Z,1222.6
2022-12-01T21:17:09.788Z,1222.8
2022-12-01T21:18:53.501Z,1233.3
2022-12-01T21:20:37.343Z,1247.9
2022-12-01T21:22:20.921Z,1244.6
2022-12-01T21:24:04.709Z,1238.8
2022-12-01T21:25:48.298Z,1232
2022-12-01T21:27:32.141Z,1225.9
2022-12-01T21:29:15.707Z,1219.3
2022-12-01T21:30:59.557Z,1215.2
2022-12-01T21:32:43.121Z,1213.1
2022-12-01T21:34:26.832Z,1207.7
2022-12-01T21:36:10.520Z,1206.6
2022-12-01T21:37:54.223Z,1200.4
2022-12-01T21:39:37.981Z,1195.8
2022-12-01T21:41:21.636Z,1189.2
2022-12-01T21:43:05.384Z,1182.8
2022-12-01T21:46:32.741Z,1178.3
2022-12-01T21:48:16.446Z,1174.2
2022-12-01T21:50:00.253Z,1168.5
2022-12-01T21:51:44.010Z,1168.6
2022-12-01T21:53:27.679Z,1163
2022-12-01T21:55:11.377Z,1172.4
2022-12-01T21:56:54.943Z,1193
2022-12-01T21:58:38.805Z,1197.2
2022-12-01T22:00:22.386Z,1186.7
2022-12-01T22:02:06.079Z,1184.7
2022-12-01T22:03:49.767Z,1181.2
2022-12-01T22:05:33.465Z,1175.1
2022-12-01T22:07:17.165Z,1167.3
2022-12-01T22:09:00.932Z,1166.7
2022-12-01T22:10:44.564Z,1164.1